Airfield :
LOGIN :

Register | Disclaimer

   EN    FR    IT 

 










Legend :    VFR   Marginal VFR   IFR   Intensive IFR   Very Intensive IFR
Visi :
Ceiling :
>= 8 km
>= 3000ft
5 to 8 km
1000 to 3000 ft
1500m to 5 km
500 to 1000 ft
800 to 1500m
200 to 500 ft
< 800m
< 200 ft
Symbols :   Thunderstorms  Fog  Heavy snow  Heavy precipitations  Wind > 20 kt
SIGMETs :     Misc.  Thunderstorms  Icing  Turbulence  Mountain Waves  Volcanic Ashes






- Airport Elevation : 587 ft
- IATA code : XCR


LFOK - Chalons Vatry

CURRENT METAR :
  • 270230Z AUTO 19006KT CAVOK 16/15 Q1014 TEMPO 3000 BR OVC005

EXPIRED METARs :
  • 270200Z AUTO 17005KT CAVOK 15/14 Q1014 TEMPO 3000 BR OVC005
  • 270130Z AUTO 16006KT CAVOK 15/14 Q1014 TEMPO 3000 BR OVC005 BECMG 22012KT
  • 270100Z AUTO 15006KT CAVOK 15/14 Q1014 TEMPO 3000 BR OVC005 BECMG 22012KT
  • 270030Z AUTO 19005KT CAVOK 15/14 Q1014 TEMPO 3000 BR OVC005
  • 270000Z AUTO 20004KT 9999 FEW046 15/14 Q1014 TEMPO 3000 BR OVC005

TAF TAF LFOK
Valid from the 27 at 00:00 until the 28 at 00:00 UTC


262300Z 2700/2724 22012KT 9999 BKN025
PROB40
TEMPO 2700/2707 3000 BR OVC005
PROB40
TEMPO 2710/2724 3000 SHRA BKN013 BKN025CB



MET'MAP, your aeronautical weather chart ! - Copyright ORBIFLY December 2007 - Disclaimer

ORBIFLY MET'MAP TEAM :

Programming & Development : Alexandra Zaïnal
Concept & original design : Baudouin d'Aumeries
Assistance for programming : Marc-Olivier Méhu
Technical & hardware support : Manuel Goepfert

Contact : metmap@orbifly.com




SOURCES & CREDITS :

   NOAA